Time;durP1;ratioP1;P1;durP2;ratioP2;P2;SDS_P1;SDS_P2;PMS_P1;PMS_P2;Temp;Humidity;BMP_temperature;BMP_pressure;BME280_temperature;BME280_humidity;BME280_pressure;Samples;Min_cycle;Max_cycle;Signal;HPM_P1;HPM_P2
2021/10/02 00:31:42;;;;;;;;;4.25;4.25;;;;;16.11;73.91;101169.50;4902855;29;46834;-58
2021/10/02 00:34:20;;;;;;;;;6.00;4.50;;;;;16.12;73.68;101163.25;4904434;29;45327;-58
2021/10/02 00:37:05;;;;;;;;;3.75;3.25;;;;;16.10;73.57;101151.03;4903909;29;45442;-59
2021/10/02 00:45:01;;;;;;;;;9.00;6.25;;;;;16.04;73.87;101148.84;4900772;29;45386;-59
2021/10/02 00:47:35;;;;;;;;;6.25;5.00;;;;;16.03;73.92;101145.31;4899278;28;45355;-59
2021/10/02 00:50:04;;;;;;;;;8.75;5.00;;;;;16.01;73.74;101149.91;4903670;29;45615;-59
2021/10/02 00:52:30;;;;;;;;;6.00;5.50;;;;;15.99;73.77;101143.03;4901012;28;45282;-59
2021/10/02 00:54:56;;;;;;;;;5.50;5.50;;;;;15.99;73.84;101151.00;4903877;29;45506;-59
2021/10/02 00:57:22;;;;;;;;;4.50;4.00;;;;;16.01;74.00;101141.09;4904122;29;45494;-59
2021/10/02 00:59:48;;;;;;;;;5.00;5.00;;;;;16.01;74.17;101141.09;4904006;28;45564;-59
2021/10/02 01:02:31;;;;;;;;;6.50;5.50;;;;;16.03;74.20;101144.47;4904544;28;45275;-59
2021/10/02 01:04:57;;;;;;;;;7.75;4.00;;;;;16.05;74.14;101145.22;4898132;29;45406;-60
2021/10/02 01:07:49;;;;;;;;;7.00;5.25;;;;;16.06;73.99;101144.25;4903195;29;45713;-59
2021/10/02 01:10:33;;;;;;;;;9.50;8.25;;;;;16.07;73.98;101148.59;4901833;29;45663;-60
2021/10/02 01:13:17;;;;;;;;;8.25;6.00;;;;;16.07;73.92;101132.66;4902689;29;45347;-59
2021/10/02 01:15:59;;;;;;;;;7.00;5.25;;;;;16.09;74.31;101136.03;4902531;28;45360;-59
2021/10/02 01:18:59;;;;;;;;;6.25;5.00;;;;;16.12;74.03;101139.34;4901214;29;45763;-59
2021/10/02 01:22:19;;;;;;;;;9.75;8.00;;;;;16.14;73.99;101149.84;4869959;29;45689;-59
2021/10/02 01:25:09;;;;;;;;;5.50;5.00;;;;;16.11;73.74;101145.59;4845438;29;45693;-59
2021/10/02 01:27:49;;;;;;;;;6.50;6.50;;;;;16.10;73.53;101140.38;4899219;29;45249;-59
2021/10/02 01:30:24;;;;;;;;;6.00;5.25;;;;;16.09;73.60;101130.72;4901939;29;45279;-59
2021/10/02 01:33:06;;;;;;;;;9.00;6.75;;;;;16.07;73.90;101135.31;4903824;29;45508;-59
2021/10/02 01:49:18;;;;;;;;;6.25;6.25;;;;;16.13;73.55;101100.31;4899352;29;45222;-58
2021/10/02 01:51:47;;;;;;;;;8.50;5.50;;;;;16.14;73.56;101099.34;4904209;29;45595;-58
2021/10/02 01:54:13;;;;;;;;;6.75;6.75;;;;;16.12;73.45;101096.81;4899347;29;45436;-58
2021/10/02 01:56:41;;;;;;;;;6.50;6.00;;;;;16.13;73.73;101092.34;4903800;29;45291;-58
2021/10/02 01:59:10;;;;;;;;;6.75;6.00;;;;;16.12;73.39;101085.34;4900886;29;45328;-58
2021/10/02 02:01:39;;;;;;;;;4.25;4.00;;;;;16.11;73.32;101081.78;4904321;29;45320;-58
2021/10/02 02:04:06;;;;;;;;;8.25;6.25;;;;;16.12;73.39;101077.34;4904321;29;45544;-58
2021/10/02 02:06:33;;;;;;;;;7.00;6.00;;;;;16.11;73.58;101083.63;4904265;29;45279;-60
2021/10/02 02:09:00;;;;;;;;;4.50;4.25;;;;;16.11;73.66;101081.78;4904299;29;45643;-60
2021/10/02 02:11:27;;;;;;;;;5.50;5.25;;;;;16.11;73.64;101081.78;4904147;28;45328;-60
2021/10/02 02:13:55;;;;;;;;;8.50;7.00;;;;;16.10;73.45;101082.75;4903991;29;46257;-60
2021/10/02 02:16:22;;;;;;;;;5.00;5.00;;;;;16.10;73.54;101088.09;4904269;29;45462;-60
2021/10/02 02:18:49;;;;;;;;;6.00;5.75;;;;;16.10;73.49;101071.28;4904173;29;45337;-60
2021/10/02 02:21:16;;;;;;;;;6.75;6.75;;;;;16.12;73.68;101064.91;4904325;29;45324;-60
2021/10/02 02:23:42;;;;;;;;;7.75;6.00;;;;;16.10;73.83;101074.78;4903903;29;46544;-60
2021/10/02 02:26:09;;;;;;;;;7.00;4.75;;;;;16.11;73.47;101073.81;4903720;29;45394;-60
2021/10/02 02:28:36;;;;;;;;;4.75;4.75;;;;;16.14;73.25;101067.44;4904064;29;45232;-60
2021/10/02 02:31:04;;;;;;;;;5.75;4.00;;;;;16.15;73.44;101062.00;4904413;29;45336;-60
2021/10/02 02:33:30;;;;;;;;;7.75;4.75;;;;;16.17;73.52;101064.53;4903608;29;46095;-60
2021/10/02 02:35:56;;;;;;;;;5.50;3.75;;;;;16.18;73.80;101059.09;4907064;29;45262;-60
2021/10/02 02:38:22;;;;;;;;;4.75;3.50;;;;;16.17;73.81;101054.75;4907331;28;45290;-60
2021/10/02 02:40:48;;;;;;;;;6.00;6.00;;;;;16.17;73.75;101037.97;4907459;29;45448;-60
2021/10/02 02:43:14;;;;;;;;;7.75;4.75;;;;;16.14;73.72;101032.91;4906990;28;46202;-60
2021/10/02 02:45:43;;;;;;;;;5.00;4.75;;;;;16.13;73.79;101026.75;4907417;29;45332;-60
2021/10/02 02:48:19;;;;;;;;;3.50;3.50;;;;;16.14;73.57;101043.53;4907084;28;45282;-60
2021/10/02 02:50:51;;;;;;;;;6.00;3.75;;;;;16.10;73.24;101053.53;4907316;29;45520;-60
2021/10/02 02:53:33;;;;;;;;;4.00;4.00;;;;;16.08;73.11;101042.19;4906869;28;46437;-61
2021/10/02 02:56:11;;;;;;;;;3.00;3.00;;;;;16.08;73.09;101020.06;4906793;29;45393;-60
2021/10/02 02:58:40;;;;;;;;;7.00;3.00;;;;;16.04;73.48;101021.31;4907231;29;45365;-60
2021/10/02 03:01:10;;;;;;;;;5.00;3.25;;;;;16.02;73.47;101010.75;4907109;29;45356;-60
2021/10/02 03:03:38;;;;;;;;;5.00;4.00;;;;;16.01;73.30;101021.53;4906775;29;45285;-60
2021/10/02 03:06:08;;;;;;;;;2.00;2.00;;;;;15.96;73.47;101029.88;4906805;28;45347;-60
2021/10/02 03:08:37;;;;;;;;;4.25;3.50;;;;;15.94;73.39;101028.25;4907078;29;45244;-60
2021/10/02 03:11:04;;;;;;;;;6.25;5.00;;;;;15.93;73.39;101018.59;4906436;28;45403;-60
2021/10/02 03:13:34;;;;;;;;;4.00;3.00;;;;;15.93;73.52;101013.28;4906761;29;46088;-60
2021/10/02 03:16:02;;;;;;;;;3.25;3.00;;;;;15.92;73.82;100988.53;4906682;28;45233;-60
2021/10/02 03:18:29;;;;;;;;;3.50;3.25;;;;;15.90;73.56;100979.84;4906882;29;45297;-60
2021/10/02 03:20:56;;;;;;;;;5.25;3.75;;;;;15.89;73.77;100994.94;4906839;28;45389;-60
2021/10/02 03:23:24;;;;;;;;;5.50;4.25;;;;;15.87;73.60;101014.59;4906488;29;46413;-60
2021/10/02 03:25:50;;;;;;;;;3.75;3.75;;;;;15.87;73.67;101010.13;4906026;28;45233;-60
2021/10/02 03:28:16;;;;;;;;;4.00;3.00;;;;;15.87;74.01;101002.16;4906460;29;45507;-60
2021/10/02 03:30:42;;;;;;;;;3.75;3.00;;;;;15.89;73.99;100996.75;4906583;28;45369;-60
2021/10/02 03:33:10;;;;;;;;;5.50;4.50;;;;;15.88;73.87;100985.28;4906222;28;46084;-60
2021/10/02 03:35:36;;;;;;;;;5.25;3.75;;;;;15.87;73.89;100978.25;4906325;28;45344;-60
2021/10/02 03:38:02;;;;;;;;;3.50;3.00;;;;;15.88;74.10;100968.50;4906543;28;45412;-60
2021/10/02 03:40:27;;;;;;;;;6.00;3.00;;;;;15.86;74.03;100967.75;4906379;29;45294;-60
2021/10/02 03:42:55;;;;;;;;;2.25;2.25;;;;;15.84;73.79;100957.25;4906331;28;45226;-60
2021/10/02 03:45:24;;;;;;;;;4.50;4.50;;;;;15.82;73.82;100955.69;4905860;29;45200;-60
2021/10/02 03:47:50;;;;;;;;;5.00;3.75;;;;;15.80;74.05;100947.84;4906406;29;45356;-61
2021/10/02 03:50:16;;;;;;;;;5.50;5.25;;;;;15.78;73.84;100949.75;4906209;29;45467;-61
2021/10/02 03:52:42;;;;;;;;;4.00;3.00;;;;;15.76;74.14;100943.72;4906321;29;45463;-60
2021/10/02 03:55:10;;;;;;;;;7.00;4.00;;;;;15.73;74.09;100941.31;4905613;28;45464;-60
2021/10/02 03:57:36;;;;;;;;;9.50;6.75;;;;;15.71;74.30;100940.56;4906333;28;45226;-60
2021/10/02 04:00:04;;;;;;;;;5.75;4.50;;;;;15.69;74.28;100953.13;4905945;29;45455;-60
2021/10/02 04:02:29;;;;;;;;;6.00;5.00;;;;;15.70;74.42;100961.94;4906280;29;45327;-60
2021/10/02 04:04:55;;;;;;;;;6.00;5.75;;;;;15.71;74.44;100968.94;4905980;29;45364;-60
2021/10/02 04:07:20;;;;;;;;;7.75;7.75;;;;;15.73;73.99;100959.06;4906249;29;45523;-60
2021/10/02 04:09:46;;;;;;;;;7.25;7.00;;;;;15.74;74.07;100943.00;4905671;28;45609;-60
2021/10/02 04:12:12;;;;;;;;;11.25;7.25;;;;;15.75;74.16;100931.41;4905936;29;46466;-60
2021/10/02 04:14:37;;;;;;;;;7.25;5.50;;;;;15.75;74.37;100928.75;4888846;29;45595;-60
2021/10/02 04:17:03;;;;;;;;;8.25;6.25;;;;;15.74;74.00;100948.31;4905884;29;45298;-60
2021/10/02 04:19:29;;;;;;;;;7.00;6.00;;;;;15.73;74.15;100949.28;4905922;29;45519;-60
2021/10/02 04:21:54;;;;;;;;;8.00;6.75;;;;;15.74;74.30;100952.78;4905653;29;45359;-60
2021/10/02 04:24:20;;;;;;;;;10.25;7.00;;;;;15.74;74.22;100956.28;4905434;29;45306;-60
2021/10/02 04:26:46;;;;;;;;;6.50;5.75;;;;;15.74;74.13;100947.47;4905566;29;45243;-60
2021/10/02 04:29:12;;;;;;;;;7.75;7.75;;;;;15.75;74.48;100943.84;4905632;29;45427;-60
2021/10/02 04:31:38;;;;;;;;;8.50;7.25;;;;;15.76;74.31;100941.06;4905491;28;45749;-60
2021/10/02 04:34:05;;;;;;;;;7.25;6.50;;;;;15.76;74.46;100946.38;4905239;29;45341;-60
2021/10/02 04:36:31;;;;;;;;;6.50;6.00;;;;;15.77;74.54;100945.41;4905543;29;45388;-60
2021/10/02 04:38:57;;;;;;;;;6.75;6.25;;;;;15.77;74.54;100950.72;4905235;28;45515;-60
2021/10/02 04:41:22;;;;;;;;;9.25;6.25;;;;;15.78;74.54;100959.53;4905206;29;46057;-60
2021/10/02 04:43:48;;;;;;;;;12.25;8.00;;;;;15.78;74.36;100959.53;4905149;29;45262;-60
2021/10/02 04:46:16;;;;;;;;;8.50;7.50;;;;;15.81;74.98;100956.66;4905643;29;45293;-60
2021/10/02 04:48:42;;;;;;;;;8.25;7.00;;;;;15.83;74.62;100938.78;4905285;28;45532;-60
2021/10/02 04:51:08;;;;;;;;;12.50;9.00;;;;;15.84;74.96;100925.38;4905479;29;46302;-60
2021/10/02 04:53:34;;;;;;;;;8.00;8.00;;;;;15.86;74.67;100941.19;4905190;29;45385;-60
2021/10/02 04:56:01;;;;;;;;;9.75;7.25;;;;;15.84;74.91;100938.66;4905097;29;45824;-61
2021/10/02 04:58:28;;;;;;;;;11.50;11.50;;;;;15.83;74.85;100934.31;4904468;29;45463;-61
2021/10/02 05:00:54;;;;;;;;;12.25;8.50;;;;;15.87;75.01;100934.91;4904995;29;45286;-61
2021/10/02 05:03:19;;;;;;;;;8.00;7.00;;;;;15.86;75.03;100943.84;4888111;29;45337;-60
2021/10/02 05:05:45;;;;;;;;;7.75;7.75;;;;;15.85;74.74;100952.78;4905236;29;45218;-60
2021/10/02 05:08:11;;;;;;;;;9.50;6.75;;;;;15.86;74.77;100950.00;4905405;29;45488;-60
2021/10/02 05:10:36;;;;;;;;;11.00;7.00;;;;;15.88;75.08;100956.06;4904851;29;45343;-60
2021/10/02 05:13:02;;;;;;;;;8.25;7.00;;;;;15.89;75.06;100952.44;4904813;29;45408;-60
2021/10/02 05:15:27;;;;;;;;;8.00;7.75;;;;;15.93;74.93;100954.84;4905348;28;45320;-60
2021/10/02 05:17:53;;;;;;;;;11.75;10.75;;;;;15.94;75.02;100937.94;4904850;29;45305;-60
2021/10/02 05:20:18;;;;;;;;;9.00;9.00;;;;;15.94;74.97;100951.22;4905107;29;46006;-60
2021/10/02 05:22:44;;;;;;;;;12.50;7.75;;;;;15.94;75.19;100932.63;4904803;29;45397;-60
2021/10/02 05:25:09;;;;;;;;;12.75;12.00;;;;;15.95;75.10;100924.53;4904511;29;45309;-60
2021/10/02 05:27:35;;;;;;;;;12.25;8.75;;;;;15.96;75.05;100920.94;4904825;29;45493;-60
2021/10/02 05:30:00;;;;;;;;;12.25;10.50;;;;;15.96;74.94;100914.75;4904295;28;45642;-60
2021/10/02 05:32:26;;;;;;;;;13.25;9.00;;;;;15.94;75.10;100909.56;4904441;28;45467;-60
2021/10/02 05:34:51;;;;;;;;;10.25;10.25;;;;;15.93;75.12;100905.22;4904297;29;45376;-60
2021/10/02 05:37:17;;;;;;;;;8.50;7.50;;;;;15.91;75.06;100908.00;4887548;29;45337;-60
2021/10/02 05:39:43;;;;;;;;;12.50;9.75;;;;;15.91;75.06;100904.50;4904386;29;46242;-60
2021/10/02 05:42:08;;;;;;;;;8.50;8.50;;;;;15.91;75.18;100901.84;4904598;29;45252;-60
2021/10/02 05:44:34;;;;;;;;;8.50;7.50;;;;;15.89;74.77;100895.81;4904865;29;45293;-60
2021/10/02 05:47:01;;;;;;;;;8.50;7.00;;;;;15.89;75.11;100890.50;4904498;29;45244;-61
2021/10/02 05:49:27;;;;;;;;;10.00;8.00;;;;;15.88;75.13;100884.34;4904542;28;45455;-61
2021/10/02 05:51:53;;;;;;;;;8.25;8.00;;;;;15.88;75.17;100884.34;4900020;29;45585;-60
2021/10/02 05:54:18;;;;;;;;;10.00;7.75;;;;;15.88;75.34;100864.91;4885065;29;45321;-60
2021/10/02 05:56:44;;;;;;;;;8.00;6.75;;;;;15.88;75.20;100870.22;4900098;29;45380;-60
2021/10/02 05:59:10;;;;;;;;;12.25;7.25;;;;;15.90;75.38;100893.03;4903714;29;45360;-61
2021/10/02 06:01:35;;;;;;;;;9.75;7.25;;;;;15.93;75.09;100891.09;4904076;29;45451;-60
2021/10/02 06:04:01;;;;;;;;;8.75;6.50;;;;;15.95;75.16;100883.81;4904157;29;45528;-61
2021/10/02 06:06:26;;;;;;;;;7.00;7.00;;;;;15.96;75.01;100897.00;4904328;29;45626;-60
2021/10/02 06:08:53;;;;;;;;;8.00;6.25;;;;;15.95;74.77;100889.13;4904236;28;45455;-60
2021/10/02 06:11:18;;;;;;;;;7.50;5.00;;;;;15.95;74.95;100883.81;4903975;29;45375;-61
2021/10/02 06:13:44;;;;;;;;;9.00;6.00;;;;;15.96;74.76;100880.19;4904019;29;45233;-61
2021/10/02 06:16:10;;;;;;;;;5.00;4.75;;;;;15.96;74.77;100890.81;4904442;29;45251;-61
2021/10/02 06:18:35;;;;;;;;;8.00;5.50;;;;;15.94;74.63;100898.09;4904017;29;46254;-61
2021/10/02 06:21:02;;;;;;;;;8.25;5.50;;;;;15.93;74.55;100896.41;4904029;29;45271;-61
2021/10/02 06:23:28;;;;;;;;;4.50;4.00;;;;;15.96;74.47;100894.34;4903977;29;45348;-61
2021/10/02 06:25:54;;;;;;;;;7.25;6.50;;;;;15.98;74.56;100887.09;4904081;28;45336;-61
2021/10/02 06:28:20;;;;;;;;;8.50;4.25;;;;;16.01;74.45;100883.34;4903830;29;46125;-61
2021/10/02 06:30:46;;;;;;;;;6.00;4.75;;;;;16.00;74.48;100871.88;4903829;29;45360;-61
2021/10/02 06:33:12;;;;;;;;;8.00;5.00;;;;;15.99;74.28;100859.56;4891570;29;45296;-61
2021/10/02 06:35:37;;;;;;;;;3.75;3.75;;;;;16.01;73.87;100854.13;4903600;29;45431;-61
2021/10/02 06:38:03;;;;;;;;;5.75;3.00;;;;;16.01;73.83;100854.13;4903895;29;45233;-61
2021/10/02 06:40:29;;;;;;;;;5.75;4.00;;;;;16.03;73.90;100861.00;4903336;28;45248;-61
2021/10/02 06:42:55;;;;;;;;;8.00;4.25;;;;;16.05;73.46;100867.06;4904078;28;45322;-61
2021/10/02 06:45:20;;;;;;;;;5.00;4.00;;;;;16.06;73.55;100871.38;4904077;28;45438;-61
2021/10/02 06:47:46;;;;;;;;;4.75;3.00;;;;;16.07;73.27;100867.75;4903855;29;45348;-61
2021/10/02 06:50:11;;;;;;;;;8.25;3.00;;;;;16.07;73.08;100865.09;4899126;29;45486;-61
2021/10/02 06:52:37;;;;;;;;;3.00;3.00;;;;;16.07;72.78;100870.41;4903649;29;45337;-61
2021/10/02 06:55:06;;;;;;;;;4.00;3.00;;;;;16.10;72.83;100879.94;4903347;29;45327;-60
2021/10/02 06:57:32;;;;;;;;;3.75;2.00;;;;;16.10;72.65;100878.13;4903028;29;46376;-61
2021/10/02 06:59:58;;;;;;;;;3.25;3.00;;;;;16.12;72.56;100872.72;4902679;29;45318;-61
2021/10/02 07:02:23;;;;;;;;;3.75;2.00;;;;;16.11;72.56;100874.50;4902833;29;45429;-61
2021/10/02 07:04:49;;;;;;;;;2.00;2.00;;;;;16.11;72.34;100861.22;4903584;29;45420;-60
2021/10/02 07:07:15;;;;;;;;;4.25;2.25;;;;;16.10;71.91;100851.56;4903141;29;45408;-59
2021/10/02 07:09:41;;;;;;;;;3.00;3.00;;;;;16.14;71.88;100865.47;4903168;29;45487;-60
2021/10/02 07:12:07;;;;;;;;;3.75;3.00;;;;;16.15;72.03;100864.50;4898372;29;45496;-61
2021/10/02 07:14:32;;;;;;;;;4.75;3.50;;;;;16.17;71.79;100873.19;4896567;29;45373;-61
2021/10/02 07:16:57;;;;;;;;;4.00;2.00;;;;;16.17;71.45;100887.31;4903254;29;45482;-61
2021/10/02 07:19:23;;;;;;;;;3.75;3.00;;;;;16.14;71.54;100878.75;4903352;29;45370;-61
2021/10/02 07:21:48;;;;;;;;;2.00;2.00;;;;;16.11;71.31;100871.84;4906105;29;45311;-61
2021/10/02 07:24:15;;;;;;;;;4.50;2.00;;;;;16.09;71.13;100864.97;4906362;29;45301;-61
2021/10/02 07:26:42;;;;;;;;;3.00;2.00;;;;;16.09;71.29;100855.19;4905948;29;45320;-66
2021/10/02 07:29:09;;;;;;;;;4.00;2.00;;;;;16.12;71.05;100835.50;4885450;29;45771;-61
2021/10/02 07:31:35;;;;;;;;;5.00;3.00;;;;;16.15;71.03;100836.09;4906509;28;45491;-60
2021/10/02 07:34:00;;;;;;;;;5.25;2.25;;;;;16.17;70.67;100835.97;4906090;28;45439;-60
2021/10/02 07:36:26;;;;;;;;;2.00;2.00;;;;;16.23;70.73;100840.78;4900390;28;46153;-61
2021/10/02 07:38:51;;;;;;;;;1.50;1.50;;;;;16.31;70.78;100830.38;4906024;29;45312;-61
2021/10/02 07:41:18;;;;;;;;;4.50;2.00;;;;;16.33;70.09;100827.59;4905616;29;46439;-62
2021/10/02 07:43:51;;;;;;;;;6.75;2.00;;;;;16.34;69.77;100826.63;4901908;28;45474;-61
2021/10/02 07:46:17;;;;;;;;;2.00;2.00;;;;;16.40;69.71;100821.66;4900431;29;45520;-61
2021/10/02 07:48:42;;;;;;;;;5.50;3.00;;;;;16.50;69.52;100819.06;4906522;28;45458;-61
2021/10/02 07:51:11;;;;;;;;;4.75;2.00;;;;;16.55;69.52;100821.34;4906218;29;45340;-62
2021/10/02 07:53:39;;;;;;;;;7.00;2.00;;;;;16.57;69.36;100814.09;4906174;28;45342;-71
2021/10/02 07:56:08;;;;;;;;;4.75;2.00;;;;;16.59;69.13;100817.44;4904886;29;45569;-61
2021/10/02 07:58:33;;;;;;;;;16.00;14.50;;;;;16.60;68.84;100821.81;4904304;28;45416;-62
2021/10/02 08:00:59;;;;;;;;;3.25;2.00;;;;;16.55;68.76;100819.53;4905126;29;45309;-61
2021/10/02 08:03:25;;;;;;;;;3.00;2.00;;;;;16.54;68.82;100819.66;4905471;28;45268;-61
2021/10/02 08:05:51;;;;;;;;;6.00;2.00;;;;;16.51;68.52;100825.22;4905410;29;46245;-61
2021/10/02 08:08:19;;;;;;;;;4.25;2.50;;;;;16.50;68.63;100812.91;4903449;29;45455;-62
2021/10/02 08:10:47;;;;;;;;;3.25;2.25;;;;;16.46;68.13;100807.84;4904590;28;45395;-63
2021/10/02 08:13:13;;;;;;;;;1.50;1.50;;;;;16.44;68.12;100814.28;4905677;28;45502;-63
2021/10/02 08:15:43;;;;;;;;;5.25;3.00;;;;;16.41;68.05;100807.38;4903903;29;45884;-63
2021/10/02 08:18:11;;;;;;;;;4.00;2.50;;;;;16.40;68.51;100796.88;4903014;29;45603;-63
2021/10/02 08:20:39;;;;;;;;;2.75;2.75;;;;;16.42;68.26;100787.78;4905707;29;45364;-62
2021/10/02 08:23:05;;;;;;;;;5.00;3.50;;;;;16.46;67.92;100793.72;4905875;28;45356;-62
2021/10/02 08:25:32;;;;;;;;;2.25;1.00;;;;;16.50;67.65;100789.81;4905170;29;45991;-62
2021/10/02 08:27:59;;;;;;;;;6.25;3.00;;;;;16.54;67.74;100783.28;4905758;29;45230;-62
2021/10/02 08:30:26;;;;;;;;;3.00;2.75;;;;;16.56;67.13;100777.81;4888379;29;45227;-62
2021/10/02 08:32:52;;;;;;;;;5.75;2.25;;;;;16.53;67.26;100775.44;4904014;29;45385;-62
2021/10/02 08:35:18;;;;;;;;;1.00;1.00;;;;;16.52;67.49;100785.22;4905106;28;45595;-62
2021/10/02 08:37:43;;;;;;;;;3.00;2.00;;;;;16.53;67.03;100775.44;4905364;29;45325;-62
2021/10/02 08:40:13;;;;;;;;;3.25;3.00;;;;;16.57;67.26;100772.38;4905392;29;45401;-62
2021/10/02 08:42:40;;;;;;;;;3.50;2.00;;;;;16.60;66.91;100758.00;4905754;29;45613;-62
2021/10/02 08:45:07;;;;;;;;;1.75;1.50;;;;;16.65;67.04;100756.63;4905247;29;45432;-62
2021/10/02 08:47:38;;;;;;;;;4.00;2.75;;;;;16.69;66.87;100746.59;4905282;29;45357;-62
2021/10/02 08:50:06;;;;;;;;;6.00;2.00;;;;;16.69;66.49;100738.63;4905448;28;45345;-62
2021/10/02 08:52:33;;;;;;;;;4.50;2.50;;;;;16.68;66.61;100747.56;4905210;29;45502;-62
2021/10/02 08:55:00;;;;;;;;;4.25;3.00;;;;;16.67;66.71;100745.88;4904872;28;46198;-61
2021/10/02 08:57:26;;;;;;;;;2.00;2.00;;;;;16.67;66.46;100753.84;4905433;29;45262;-62
2021/10/02 08:59:55;;;;;;;;;5.00;4.00;;;;;16.69;66.41;100750.13;4905093;29;45430;-63
2021/10/02 09:02:22;;;;;;;;;3.25;2.00;;;;;16.74;66.42;100760.34;4888231;29;45282;-62
2021/10/02 09:04:48;;;;;;;;;3.75;3.75;;;;;16.80;66.29;100754.50;4905008;28;46029;-62
2021/10/02 09:07:16;;;;;;;;;4.00;2.00;;;;;16.87;66.32;100741.53;4903585;29;45330;-63
2021/10/02 09:09:44;;;;;;;;;4.50;3.00;;;;;16.89;66.35;100745.75;4899767;28;45543;-61
2021/10/02 09:12:10;;;;;;;;;5.00;2.00;;;;;16.86;66.08;100751.34;4904760;29;45319;-63
2021/10/02 09:14:36;;;;;;;;;6.50;3.75;;;;;16.80;65.76;100749.19;4904775;29;45386;-61
2021/10/02 09:17:02;;;;;;;;;2.00;2.00;;;;;16.78;66.02;100743.16;4904853;29;45603;-61
2021/10/02 09:19:28;;;;;;;;;2.50;2.50;;;;;16.84;66.19;100739.16;4904725;29;45355;-60
2021/10/02 09:22:01;;;;;;;;;5.75;4.00;;;;;16.92;66.38;100720.72;4904396;29;45263;-60
2021/10/02 09:24:37;;;;;;;;;3.00;3.00;;;;;17.05;66.29;100709.81;4904268;28;45539;-61
2021/10/02 09:27:03;;;;;;;;;3.75;2.00;;;;;17.15;66.06;100706.25;4887335;29;45499;-60
2021/10/02 09:29:39;;;;;;;;;4.75;3.00;;;;;17.26;65.37;100706.13;4904567;29;45275;-62
2021/10/02 09:32:08;;;;;;;;;2.50;2.50;;;;;17.35;65.28;100696.50;4904499;29;45397;-62
2021/10/02 09:34:44;;;;;;;;;3.75;3.75;;;;;17.48;64.91;100697.09;4904293;28;46273;-62
2021/10/02 09:37:20;;;;;;;;;2.00;2.00;;;;;17.63;64.80;100688.72;4904543;29;45444;-63
2021/10/02 09:39:46;;;;;;;;;3.25;3.00;;;;;17.76;65.00;100676.84;4904183;29;45397;-62
2021/10/02 09:42:42;;;;;;;;;6.00;3.25;;;;;17.84;64.38;100669.00;4904528;29;45420;-61
2021/10/02 09:45:20;;;;;;;;;6.00;4.25;;;;;17.89;64.15;100655.25;4903488;29;45471;-62
2021/10/02 09:47:50;;;;;;;;;2.50;2.50;;;;;17.96;64.17;100636.88;4904031;28;45427;-61
2021/10/02 09:50:31;;;;;;;;;4.00;3.00;;;;;18.03;63.67;100622.84;4903776;29;45548;-63
2021/10/02 09:53:03;;;;;;;;;4.00;4.00;;;;;18.08;62.83;100625.91;4902743;29;45738;-63
2021/10/02 09:55:31;;;;;;;;;3.50;2.75;;;;;18.14;62.91;100622.69;4903386;29;45369;-61
2021/10/02 09:58:01;;;;;;;;;10.25;4.00;;;;;18.24;62.96;100613.84;4903708;29;45468;-62
2021/10/02 10:00:29;;;;;;;;;3.50;2.75;;;;;18.33;62.23;100591.66;4903679;29;45180;-62
2021/10/02 10:02:56;;;;;;;;;3.00;3.00;;;;;18.42;62.14;100596.13;4903908;29;45500;-61
2021/10/02 10:05:28;;;;;;;;;7.75;4.00;;;;;18.52;61.70;100582.75;4904074;29;45483;-63
2021/10/02 10:07:59;;;;;;;;;4.00;3.00;;;;;18.59;61.53;100581.19;4904372;29;45337;-62
2021/10/02 10:10:27;;;;;;;;;1.50;0.25;;;;;18.66;61.21;100563.63;4903739;29;45206;-63
2021/10/02 10:12:54;;;;;;;;;3.25;2.00;;;;;18.71;61.05;100564.00;4904297;29;45601;-61
2021/10/02 10:15:35;;;;;;;;;2.75;2.25;;;;;18.78;60.63;100553.59;4903684;29;45455;-62
2021/10/02 10:18:02;;;;;;;;;2.00;2.00;;;;;18.80;60.68;100549.81;4901994;29;45438;-62
2021/10/02 10:20:52;;;;;;;;;5.00;2.00;;;;;18.83;59.93;100546.84;4903187;29;45383;-63
2021/10/02 10:23:39;;;;;;;;;2.50;1.25;;;;;18.86;59.90;100530.50;4901379;29;45242;-63
2021/10/02 10:26:11;;;;;;;;;3.00;2.00;;;;;18.87;59.56;100513.50;4902048;29;45360;-62
2021/10/02 10:28:39;;;;;;;;;3.25;1.50;;;;;18.89;59.69;100502.69;4902591;29;45334;-62
2021/10/02 10:31:26;;;;;;;;;2.75;2.75;;;;;18.91;59.75;100508.72;4903363;29;45447;-61
2021/10/02 10:33:57;;;;;;;;;3.00;2.00;;;;;18.91;59.53;100512.22;4903356;29;45608;-63
2021/10/02 10:36:26;;;;;;;;;2.00;2.00;;;;;18.92;59.63;100508.56;4903225;29;45301;-62
2021/10/02 10:38:52;;;;;;;;;2.00;2.00;;;;;18.95;59.71;100515.41;4903265;29;45325;-62
2021/10/02 10:41:20;;;;;;;;;3.75;2.25;;;;;18.98;59.76;100522.31;4903204;29;45272;-61
2021/10/02 10:43:48;;;;;;;;;3.00;3.00;;;;;18.98;59.67;100519.63;4903533;29;45385;-62
2021/10/02 10:46:19;;;;;;;;;4.00;2.00;;;;;19.01;60.22;100520.16;4900782;29;46064;-62
2021/10/02 10:48:44;;;;;;;;;2.25;2.25;;;;;19.04;60.01;100517.22;4903217;29;45400;-59
2021/10/02 10:51:15;;;;;;;;;2.50;2.00;;;;;19.06;59.38;100514.38;4902915;29;45401;-62
2021/10/02 10:53:43;;;;;;;;;2.50;1.00;;;;;19.06;59.18;100511.72;4903336;29;45285;-61
2021/10/02 10:56:11;;;;;;;;;3.00;2.00;;;;;19.04;59.62;100508.34;4904408;29;46285;-62
2021/10/02 10:58:38;;;;;;;;;2.00;2.00;;;;;19.01;58.57;100498.81;4906099;29;45464;-61
2021/10/02 11:01:09;;;;;;;;;2.25;2.25;;;;;19.00;58.94;100481.13;4906188;29;45379;-61
2021/10/02 11:03:43;;;;;;;;;1.50;1.50;;;;;19.01;58.68;100473.94;4903795;29;45321;-62
2021/10/02 11:06:19;;;;;;;;;2.50;2.00;;;;;19.01;58.69;100471.28;4906102;29;45371;-63
2021/10/02 11:09:07;;;;;;;;;5.25;4.75;;;;;19.01;59.13;100471.28;4906148;28;45236;-61
2021/10/02 11:11:51;;;;;;;;;3.00;3.00;;;;;19.02;58.62;100460.44;4906029;29;45234;-62
2021/10/02 11:14:40;;;;;;;;;5.00;2.00;;;;;19.04;58.66;100455.81;4904169;28;45487;-61
2021/10/02 11:17:06;;;;;;;;;1.75;1.00;;;;;19.07;58.87;100451.97;4904627;29;46189;-63
2021/10/02 11:19:38;;;;;;;;;2.75;2.50;;;;;19.06;58.60;100447.63;4906060;29;45436;-61
2021/10/02 11:22:39;;;;;;;;;3.25;2.00;;;;;19.09;58.61;100439.31;4906176;28;45468;-63
2021/10/02 11:25:35;;;;;;;;;4.25;2.00;;;;;19.11;58.17;100440.81;4904584;29;45255;-61
2021/10/02 11:28:22;;;;;;;;;1.25;1.00;;;;;19.13;58.45;100430.84;4892033;29;46087;-62
2021/10/02 11:30:53;;;;;;;;;3.50;3.00;;;;;19.12;58.74;100431.84;4905344;29;45229;-61
2021/10/02 11:33:40;;;;;;;;;2.75;2.75;;;;;19.15;59.08;100420.03;4905584;29;45502;-62
2021/10/02 11:36:35;;;;;;;;;4.25;3.00;;;;;19.14;58.97;100410.34;4904944;29;45296;-62
2021/10/02 11:39:27;;;;;;;;;1.75;1.75;;;;;19.12;59.48;100391.81;4905581;29;45347;-62
2021/10/02 11:41:54;;;;;;;;;2.50;2.00;;;;;19.21;59.50;100392.69;4900388;29;45651;-62
2021/10/02 11:44:37;;;;;;;;;3.00;3.00;;;;;19.27;60.14;100391.22;4905561;29;45303;-63
2021/10/02 11:47:25;;;;;;;;;3.50;2.00;;;;;19.29;59.72;100375.91;4904416;29;45430;-61
2021/10/02 11:50:09;;;;;;;;;3.00;3.00;;;;;19.28;59.96;100374.22;4905028;29;46605;-61
2021/10/02 11:52:44;;;;;;;;;3.00;2.25;;;;;19.25;60.11;100367.34;4902721;29;45409;-61
2021/10/02 11:55:38;;;;;;;;;2.25;2.00;;;;;19.23;60.33;100370.19;4897599;29;45376;-60
2021/10/02 11:58:09;;;;;;;;;4.25;3.00;;;;;19.20;60.83;100356.31;4895540;29;45403;-62
2021/10/02 12:00:43;;;;;;;;;4.75;2.25;;;;;19.16;60.47;100350.44;4905748;29;46587;-63
2021/10/02 12:03:13;;;;;;;;;3.50;3.00;;;;;19.13;60.41;100355.25;4905889;29;45305;-63
2021/10/02 12:05:48;;;;;;;;;2.25;2.25;;;;;19.12;60.59;100335.72;4905768;28;45347;-63
2021/10/02 12:08:14;;;;;;;;;4.25;4.00;;;;;19.07;60.48;100327.34;4905744;29;45324;-63
2021/10/02 12:10:56;;;;;;;;;5.25;3.00;;;;;19.07;60.93;100316.66;4904696;29;45442;-60
2021/10/02 12:13:34;;;;;;;;;2.00;1.75;;;;;19.01;60.46;100306.59;4902011;29;45444;-64
2021/10/02 12:16:04;;;;;;;;;5.00;1.75;;;;;19.00;60.97;100302.25;4905326;29;45390;-63
2021/10/02 12:19:10;;;;;;;;;6.25;3.25;;;;;18.94;61.04;100294.88;4905059;28;45458;-63
2021/10/02 12:21:39;;;;;;;;;3.25;2.25;;;;;18.87;61.22;100278.63;4872933;29;45512;-61
2021/10/02 12:24:07;;;;;;;;;3.00;2.00;;;;;18.84;60.94;100276.28;4904556;29;45558;-62
2021/10/02 12:27:14;;;;;;;;;3.75;3.75;;;;;18.78;61.34;100273.41;4904834;29;45472;-60